Time;durP1;ratioP1;P1;durP2;ratioP2;P2;SDS_P1;SDS_P2;PMS_P1;PMS_P2;Temp;Humidity;BMP_temperature;BMP_pressure;BME280_temperature;BME280_humidity;BME280_pressure;Samples;Min_cycle;Max_cycle;Signal;HPM_P1;HPM_P2
2023/06/18 00:01:12;;;;;;;6.10;4.03;;;17.40;95.10;;;;;;4863495;29;20070;-77
2023/06/18 00:03:40;;;;;;;9.88;4.20;;;17.00;95.20;;;;;;4842462;29;20050;-76
2023/06/18 00:06:10;;;;;;;6.25;3.88;;;17.40;95.30;;;;;;4848202;29;20052;-77
2023/06/18 00:08:38;;;;;;;7.57;4.53;;;17.30;95.40;;;;;;4867019;29;20394;-77
2023/06/18 00:11:06;;;;;;;6.25;4.35;;;17.30;95.20;;;;;;4850611;29;20311;-77
2023/06/18 00:13:33;;;;;;;6.38;4.03;;;17.30;95.30;;;;;;4854776;29;20071;-77
2023/06/18 00:16:01;;;;;;;6.72;3.92;;;17.40;95.30;;;;;;4848665;29;20053;-77
2023/06/18 00:18:34;;;;;;;7.30;3.95;;;17.50;95.40;;;;;;4857339;29;20151;-76
2023/06/18 00:21:03;;;;;;;5.55;3.35;;;17.30;95.10;;;;;;4857850;29;20736;-77
2023/06/18 00:23:30;;;;;;;5.82;3.80;;;17.20;95.30;;;;;;4840525;29;20059;-77
2023/06/18 00:25:58;;;;;;;7.60;4.03;;;17.30;95.50;;;;;;4867338;29;20056;-77
2023/06/18 00:28:26;;;;;;;6.70;3.70;;;17.30;95.40;;;;;;4864605;29;20064;-76
2023/06/18 00:30:53;;;;;;;7.90;3.97;;;17.20;95.40;;;;;;4838927;29;20451;-77
2023/06/18 00:33:26;;;;;;;6.93;3.95;;;17.30;96.00;;;;;;4845760;29;22413;-77
2023/06/18 00:35:57;;;;;;;5.88;3.90;;;17.20;96.10;;;;;;4854939;29;20115;-77
2023/06/18 00:38:27;;;;;;;6.22;3.92;;;17.20;96.10;;;;;;4839520;29;20063;-77
2023/06/18 00:40:56;;;;;;;6.38;4.32;;;16.00;95.80;;;;;;4855978;29;22798;-76
2023/06/18 00:43:23;;;;;;;7.82;3.90;;;17.10;95.90;;;;;;4833085;29;20312;-76
2023/06/18 00:45:53;;;;;;;8.20;4.90;;;17.00;96.20;;;;;;4848434;29;20060;-76
2023/06/18 00:48:25;;;;;;;6.60;3.63;;;18.30;96.50;;;;;;4840547;29;20052;-76
2023/06/18 00:50:53;;;;;;;8.18;4.30;;;17.00;96.30;;;;;;4852347;29;20055;-76
2023/06/18 00:53:21;;;;;;;6.25;4.40;;;17.00;96.60;;;;;;4849698;29;20044;-77
2023/06/18 00:55:50;;;;;;;7.70;4.28;;;16.90;97.00;;;;;;4857934;29;23175;-76
2023/06/18 00:58:18;;;;;;;5.90;3.83;;;17.00;96.90;;;;;;4840005;29;20057;-77
2023/06/18 01:00:46;;;;;;;5.60;3.72;;;16.90;97.00;;;;;;4843365;29;20062;-76
2023/06/18 01:03:20;;;;;;;7.35;3.95;;;16.90;97.00;;;;;;4869746;29;20420;-76
2023/06/18 01:05:56;;;;;;;6.13;4.28;;;16.80;97.00;;;;;;4864522;29;20059;-76
2023/06/18 01:08:25;;;;;;;5.60;3.80;;;16.70;97.40;;;;;;4849799;29;20508;-77
2023/06/18 01:11:05;;;;;;;7.47;4.88;;;15.50;97.30;;;;;;4861210;29;20048;-77
2023/06/18 01:13:39;;;;;;;6.55;3.95;;;16.80;97.10;;;;;;4841935;29;20067;-77
2023/06/18 01:16:13;;;;;;;8.48;4.53;;;16.90;97.50;;;;;;4838866;29;20063;-77
2023/06/18 01:18:46;;;;;;;5.88;3.47;;;16.90;97.40;;;;;;4859369;29;20127;-77
2023/06/18 01:21:18;;;;;;;6.57;3.95;;;16.50;97.30;;;;;;4850075;29;20053;-77
2023/06/18 01:24:11;;;;;;;6.85;3.70;;;16.60;97.60;;;;;;4849859;29;20053;-76
2023/06/18 01:26:44;;;;;;;7.70;4.57;;;16.60;98.30;;;;;;4865948;29;20045;-76
2023/06/18 01:29:14;;;;;;;7.32;4.85;;;16.60;97.70;;;;;;4842976;29;20421;-77
2023/06/18 01:31:44;;;;;;;6.97;4.30;;;16.60;97.90;;;;;;4860688;29;20138;-77
2023/06/18 01:34:15;;;;;;;6.97;4.00;;;16.60;98.00;;;;;;4856113;29;20080;-77
2023/06/18 01:36:56;;;;;;;7.35;4.55;;;16.50;97.80;;;;;;4837865;29;20616;-77
2023/06/18 01:39:52;;;;;;;8.77;4.43;;;16.40;97.70;;;;;;4856635;29;20053;-77
2023/06/18 01:42:22;;;;;;;6.97;4.45;;;16.40;98.30;;;;;;4856762;29;20052;-77
2023/06/18 01:45:04;;;;;;;7.30;3.67;;;16.50;98.10;;;;;;4864470;29;20060;-77
2023/06/18 01:47:33;;;;;;;6.03;3.90;;;16.20;98.10;;;;;;4871112;29;20148;-77
2023/06/18 01:50:02;;;;;;;7.57;3.75;;;16.30;97.80;;;;;;4850576;29;22997;-77
2023/06/18 01:52:34;;;;;;;5.82;3.42;;;16.30;98.00;;;;;;4876239;29;20055;-77
2023/06/18 01:55:03;;;;;;;8.23;4.15;;;16.50;98.00;;;;;;4836485;29;20055;-77
2023/06/18 01:57:34;;;;;;;7.97;3.90;;;16.40;98.10;;;;;;4865200;29;20054;-76
2023/06/18 02:00:04;;;;;;;7.63;3.97;;;16.40;98.20;;;;;;4867716;29;20546;-76
2023/06/18 02:02:39;;;;;;;5.78;3.72;;;16.40;98.50;;;;;;4854279;29;20089;-76
2023/06/18 02:05:10;;;;;;;6.38;4.03;;;16.30;98.70;;;;;;4856685;29;20052;-77
2023/06/18 02:07:38;;;;;;;7.63;4.28;;;16.30;98.50;;;;;;4852698;29;20056;-77
2023/06/18 02:10:06;;;;;;;6.32;3.53;;;16.30;98.70;;;;;;4841030;29;20108;-77
2023/06/18 02:12:33;;;;;;;7.28;4.03;;;15.90;98.80;;;;;;4843133;29;20086;-77
2023/06/18 02:15:04;;;;;;;6.88;4.22;;;16.40;99.00;;;;;;4842333;29;20080;-77
2023/06/18 02:17:34;;;;;;;6.70;3.70;;;16.20;99.20;;;;;;4838992;29;20190;-77
2023/06/18 02:20:03;;;;;;;8.40;4.53;;;16.30;99.40;;;;;;4851197;29;22618;-77
2023/06/18 02:22:31;;;;;;;7.93;3.72;;;16.20;99.20;;;;;;4852848;29;20055;-77
2023/06/18 02:24:58;;;;;;;6.93;3.95;;;16.30;99.20;;;;;;4859176;29;20047;-77
2023/06/18 02:27:28;;;;;;;7.97;3.67;;;16.20;99.40;;;;;;4865118;29;20055;-77
2023/06/18 02:29:56;;;;;;;6.43;3.92;;;16.00;98.90;;;;;;4866228;29;22312;-77
2023/06/18 02:32:23;;;;;;;7.07;3.45;;;16.10;99.10;;;;;;4851432;29;20057;-77
2023/06/18 02:34:55;;;;;;;7.45;4.30;;;16.10;99.50;;;;;;4864727;29;20457;-77
2023/06/18 02:37:22;;;;;;;7.15;4.60;;;16.10;99.40;;;;;;4847751;29;20048;-77
2023/06/18 02:39:50;;;;;;;6.43;4.18;;;15.20;99.20;;;;;;4837940;29;20691;-77
2023/06/18 02:42:20;;;;;;;6.50;4.40;;;16.10;99.60;;;;;;4854057;29;20051;-76
2023/06/18 02:44:51;;;;;;;6.82;4.22;;;16.00;99.90;;;;;;4864217;29;20057;-76
2023/06/18 02:47:22;;;;;;;10.25;5.00;;;16.00;99.90;;;;;;4837764;29;20591;-76
2023/06/18 02:49:50;;;;;;;8.07;4.72;;;16.10;99.90;;;;;;4836897;29;20048;-76
2023/06/18 02:52:18;;;;;;;7.60;4.63;;;16.00;99.90;;;;;;4850330;29;21117;-76
2023/06/18 02:54:46;;;;;;;10.57;4.95;;;16.00;99.90;;;;;;4864294;29;20044;-76
2023/06/18 02:57:13;;;;;;;9.93;5.53;;;15.90;99.90;;;;;;4858590;29;20044;-76
2023/06/18 02:59:41;;;;;;;7.95;4.55;;;15.80;99.90;;;;;;4852528;29;20056;-76
2023/06/18 03:02:09;;;;;;;9.98;4.85;;;15.90;99.90;;;;;;4853389;29;20052;-77
2023/06/18 03:04:37;;;;;;;7.60;4.63;;;15.80;99.90;;;;;;4830609;29;20055;-76
2023/06/18 03:07:05;;;;;;;6.63;4.35;;;15.90;99.90;;;;;;4847877;29;20071;-76
2023/06/18 03:09:33;;;;;;;7.20;4.72;;;15.90;99.90;;;;;;4852798;29;20545;-76
2023/06/18 03:12:01;;;;;;;6.38;4.40;;;15.90;99.90;;;;;;4856130;29;20147;-76
2023/06/18 03:14:32;;;;;;;7.65;4.20;;;15.90;99.90;;;;;;4868320;29;20055;-76
2023/06/18 03:17:01;;;;;;;9.20;4.68;;;15.90;99.90;;;;;;4864763;29;20530;-76
2023/06/18 03:19:30;;;;;;;7.30;4.18;;;15.90;99.90;;;;;;4852127;29;20041;-76
2023/06/18 03:21:58;;;;;;;8.27;5.13;;;16.00;99.90;;;;;;4832898;29;20769;-76
2023/06/18 03:24:28;;;;;;;8.60;4.60;;;15.90;99.90;;;;;;4849880;29;20275;-76
2023/06/18 03:26:59;;;;;;;8.10;4.50;;;16.00;99.90;;;;;;4846917;29;20068;-76
2023/06/18 03:29:30;;;;;;;7.65;4.32;;;16.80;99.90;;;;;;4860426;29;20102;-76
2023/06/18 03:31:58;;;;;;;7.75;4.47;;;16.10;99.90;;;;;;4851092;29;20056;-76
2023/06/18 03:34:31;;;;;;;8.80;5.43;;;15.90;99.90;;;;;;4882405;29;20453;-76
2023/06/18 03:37:00;;;;;;;7.63;4.82;;;15.20;99.90;;;;;;4846267;29;20721;-76
2023/06/18 03:39:29;;;;;;;8.52;5.07;;;17.10;99.90;;;;;;4861512;29;20052;-77
2023/06/18 03:41:57;;;;;;;9.50;4.85;;;16.10;99.90;;;;;;4851117;29;20208;-77
2023/06/18 03:44:24;;;;;;;6.00;4.05;;;16.10;99.90;;;;;;4864590;29;20416;-77
2023/06/18 03:46:55;;;;;;;8.65;4.57;;;15.90;99.90;;;;;;4853494;29;20047;-77
2023/06/18 03:49:23;;;;;;;9.32;5.07;;;16.20;99.90;;;;;;4838293;29;20064;-77
2023/06/18 03:51:51;;;;;;;7.25;4.43;;;17.10;99.90;;;;;;4841052;29;20148;-77
2023/06/18 03:54:19;;;;;;;6.25;3.92;;;15.20;99.90;;;;;;4865379;29;20056;-77
2023/06/18 03:56:46;;;;;;;6.35;3.88;;;16.30;99.90;;;;;;4867408;29;20182;-77
2023/06/18 03:59:14;;;;;;;9.32;4.88;;;15.70;99.90;;;;;;4851079;29;20480;-77
2023/06/18 04:01:42;;;;;;;8.10;4.13;;;16.40;99.90;;;;;;4868500;29;20503;-77
2023/06/18 04:04:09;;;;;;;5.63;3.63;;;16.40;99.90;;;;;;4837265;29;20052;-77
2023/06/18 04:06:37;;;;;;;5.22;3.63;;;16.50;99.90;;;;;;4850823;29;20052;-77
2023/06/18 04:09:05;;;;;;;6.97;4.38;;;16.50;99.90;;;;;;4847068;29;20760;-76
2023/06/18 04:11:33;;;;;;;7.28;4.30;;;16.60;99.90;;;;;;4846225;29;20059;-76
2023/06/18 04:14:01;;;;;;;5.50;3.50;;;16.70;99.90;;;;;;4851662;29;20062;-76
2023/06/18 04:16:29;;;;;;;7.45;4.70;;;16.80;99.90;;;;;;4847723;29;20048;-76
2023/06/18 04:19:00;;;;;;;6.95;4.07;;;16.90;99.90;;;;;;4860142;29;20112;-76
2023/06/18 04:21:27;;;;;;;5.35;3.33;;;16.30;99.90;;;;;;4865914;29;20049;-76
2023/06/18 04:23:59;;;;;;;5.40;3.45;;;16.80;99.90;;;;;;4852017;29;20053;-76
2023/06/18 04:26:27;;;;;;;6.32;3.53;;;17.20;99.90;;;;;;4847004;29;20186;-76
2023/06/18 04:28:55;;;;;;;4.28;3.00;;;17.20;99.90;;;;;;4850713;29;20526;-76
2023/06/18 04:31:24;;;;;;;5.68;3.67;;;17.20;99.90;;;;;;4847042;29;20064;-76
2023/06/18 04:33:55;;;;;;;5.57;3.33;;;17.30;99.90;;;;;;4853449;29;20065;-76
2023/06/18 04:36:25;;;;;;;5.40;3.20;;;16.60;99.50;;;;;;4852615;29;20220;-76
2023/06/18 04:38:53;;;;;;;6.80;3.70;;;17.40;99.80;;;;;;4839049;29;20282;-76
2023/06/18 04:41:25;;;;;;;5.28;3.10;;;17.50;99.90;;;;;;4866884;29;20051;-76
2023/06/18 04:43:53;;;;;;;5.30;3.28;;;17.80;99.90;;;;;;4851213;29;20435;-76
2023/06/18 04:46:21;;;;;;;4.55;2.78;;;17.70;99.60;;;;;;4850077;29;20558;-76
2023/06/18 04:48:49;;;;;;;5.22;3.25;;;17.80;99.40;;;;;;4868759;29;20044;-77
2023/06/18 04:51:17;;;;;;;5.40;3.40;;;17.90;99.40;;;;;;4856533;29;20391;-77
2023/06/18 04:53:45;;;;;;;7.20;3.58;;;17.90;98.90;;;;;;4850226;29;20056;-76
2023/06/18 04:56:13;;;;;;;7.10;3.22;;;17.20;99.00;;;;;;4850479;29;20504;-76
2023/06/18 04:58:42;;;;;;;4.13;2.75;;;18.10;99.20;;;;;;4852455;29;20056;-77
2023/06/18 05:01:10;;;;;;;5.60;3.60;;;18.10;99.30;;;;;;4842542;29;20044;-76
2023/06/18 05:03:40;;;;;;;6.05;3.28;;;17.30;99.30;;;;;;4837879;29;20052;-77
2023/06/18 05:06:08;;;;;;;5.70;3.13;;;18.10;99.40;;;;;;4864195;29;22475;-76
2023/06/18 05:08:36;;;;;;;4.78;3.10;;;17.30;99.30;;;;;;4853232;29;20060;-77
2023/06/18 05:11:04;;;;;;;4.03;2.53;;;18.40;99.30;;;;;;4851838;29;20108;-76
2023/06/18 05:13:34;;;;;;;4.88;3.00;;;18.60;99.20;;;;;;4834911;29;22356;-77
2023/06/18 05:16:02;;;;;;;5.10;2.78;;;18.40;98.80;;;;;;4845847;29;20056;-76
2023/06/18 05:18:30;;;;;;;5.20;3.05;;;18.70;98.60;;;;;;4850127;29;20044;-77
2023/06/18 05:20:58;;;;;;;4.50;2.88;;;18.80;97.80;;;;;;4856324;29;20060;-76
2023/06/18 05:23:26;;;;;;;5.75;3.47;;;19.00;97.10;;;;;;4852800;29;20045;-77
2023/06/18 05:26:03;;;;;;;9.38;4.00;;;19.20;96.40;;;;;;4871185;29;20372;-77
2023/06/18 05:28:31;;;;;;;6.20;2.97;;;19.30;96.20;;;;;;4858455;29;20548;-77
2023/06/18 05:30:59;;;;;;;5.00;2.95;;;19.30;96.30;;;;;;4867157;29;20052;-77
2023/06/18 05:33:28;;;;;;;4.72;3.35;;;19.60;96.30;;;;;;4855818;29;20060;-77
2023/06/18 05:35:59;;;;;;;5.25;3.00;;;19.50;95.70;;;;;;4855038;29;20182;-77
2023/06/18 05:38:26;;;;;;;3.78;2.53;;;20.10;95.20;;;;;;4884009;29;20061;-76
2023/06/18 05:40:57;;;;;;;4.68;2.85;;;19.80;95.00;;;;;;4838102;29;20059;-77
2023/06/18 05:43:28;;;;;;;5.45;3.40;;;19.70;94.50;;;;;;4838810;29;20052;-77
2023/06/18 05:45:57;;;;;;;5.53;3.03;;;20.10;94.70;;;;;;4860147;29;20059;-77
2023/06/18 05:48:25;;;;;;;4.35;2.42;;;20.10;94.40;;;;;;4842614;29;20059;-77
2023/06/18 05:51:02;;;;;;;6.70;3.03;;;20.40;93.80;;;;;;4848819;29;20732;-77
2023/06/18 05:53:30;;;;;;;6.60;3.03;;;20.50;93.50;;;;;;4842628;29;20067;-77
2023/06/18 05:55:58;;;;;;;4.97;3.20;;;20.50;93.20;;;;;;4830934;29;20916;-77
2023/06/18 05:58:26;;;;;;;8.60;2.95;;;20.60;91.90;;;;;;4843121;29;20036;-77
2023/06/18 06:00:55;;;;;;;5.32;3.10;;;21.30;92.50;;;;;;4839385;29;20056;-78
2023/06/18 06:03:22;;;;;;;4.50;2.83;;;20.90;92.30;;;;;;4839314;29;20052;-78
2023/06/18 06:05:50;;;;;;;6.03;3.28;;;20.90;91.90;;;;;;4843670;29;20052;-77
2023/06/18 06:08:18;;;;;;;6.18;2.80;;;20.90;91.60;;;;;;4839505;29;20103;-77
2023/06/18 06:10:53;;;;;;;6.35;3.13;;;20.70;91.60;;;;;;4839197;29;22311;-76
2023/06/18 06:13:22;;;;;;;5.30;2.85;;;21.20;91.30;;;;;;4836234;29;20092;-77
2023/06/18 06:15:55;;;;;;;4.78;2.65;;;21.40;91.50;;;;;;4825942;29;20052;-76
2023/06/18 06:18:23;;;;;;;5.80;2.83;;;21.00;87.60;;;;;;4843739;29;20080;-78
2023/06/18 06:20:50;;;;;;;5.20;2.90;;;21.50;88.00;;;;;;4847778;29;20071;-77
2023/06/18 06:23:17;;;;;;;4.07;2.03;;;21.50;87.90;;;;;;4875288;29;20202;-77
2023/06/18 06:25:45;;;;;;;3.58;2.38;;;21.60;86.60;;;;;;4850722;29;20055;-77
2023/06/18 06:28:13;;;;;;;5.00;2.67;;;21.80;85.90;;;;;;4834851;29;20055;-77
2023/06/18 06:30:42;;;;;;;4.57;2.03;;;21.90;84.90;;;;;;4857080;29;20056;-77
2023/06/18 06:33:10;;;;;;;4.00;2.72;;;21.90;82.90;;;;;;4847410;29;20047;-77
2023/06/18 06:35:41;;;;;;;2.83;1.92;;;22.20;84.40;;;;;;4851012;29;20812;-77
2023/06/18 06:38:12;;;;;;;3.88;2.60;;;22.30;81.50;;;;;;4858974;29;20444;-80
2023/06/18 06:40:39;;;;;;;4.03;2.25;;;22.30;81.20;;;;;;4848081;29;20059;-77
2023/06/18 06:43:07;;;;;;;3.75;2.08;;;22.40;80.20;;;;;;4865182;29;20553;-77
2023/06/18 06:45:46;;;;;;;3.75;2.25;;;22.50;78.70;;;;;;4874336;29;20052;-77
2023/06/18 06:48:22;;;;;;;2.58;1.98;;;22.50;77.10;;;;;;4851465;29;20067;-77
2023/06/18 06:51:07;;;;;;;4.70;2.35;;;22.50;77.80;;;;;;4842928;29;20053;-77
2023/06/18 06:53:41;;;;;;;4.25;2.40;;;22.60;78.10;;;;;;4863927;29;20722;-78
2023/06/18 06:56:08;;;;;;;3.42;2.38;;;22.80;77.50;;;;;;4841287;29;20044;-78
2023/06/18 06:58:37;;;;;;;3.45;2.40;;;22.90;76.40;;;;;;4856032;29;20052;-77
2023/06/18 07:01:04;;;;;;;3.17;2.30;;;23.00;76.10;;;;;;4852828;29;20063;-78
2023/06/18 07:03:32;;;;;;;2.55;1.70;;;23.20;76.50;;;;;;4857777;29;22944;-75
2023/06/18 07:05:59;;;;;;;3.05;1.67;;;23.20;74.70;;;;;;4847971;29;20048;-78
2023/06/18 07:08:26;;;;;;;3.10;1.73;;;23.20;70.60;;;;;;4861293;29;20071;-76
2023/06/18 07:10:53;;;;;;;3.47;1.88;;;23.30;71.40;;;;;;4870067;29;20728;-78
2023/06/18 07:13:21;;;;;;;3.25;1.80;;;23.30;72.00;;;;;;4844869;29;20281;-78
2023/06/18 07:15:48;;;;;;;2.17;1.35;;;23.50;71.20;;;;;;4847918;29;20044;-77
2023/06/18 07:18:15;;;;;;;3.05;1.55;;;23.60;70.20;;;;;;4861648;29;20051;-78
2023/06/18 07:20:42;;;;;;;2.80;1.90;;;23.70;70.00;;;;;;4848537;29;20056;-77
2023/06/18 07:23:09;;;;;;;2.17;1.48;;;23.80;69.50;;;;;;4847807;29;20587;-77
2023/06/18 07:25:37;;;;;;;2.95;1.30;;;23.80;68.10;;;;;;4850529;29;20404;-78
2023/06/18 07:28:04;;;;;;;2.58;1.58;;;23.90;68.70;;;;;;4868001;29;20045;-77
2023/06/18 07:30:32;;;;;;;2.05;1.15;;;24.00;66.50;;;;;;4860241;29;20056;-77
2023/06/18 07:32:59;;;;;;;3.30;1.35;;;24.10;67.20;;;;;;4867392;29;21430;-76
2023/06/18 07:35:26;;;;;;;1.58;1.10;;;24.00;63.90;;;;;;4847368;29;20195;-79
2023/06/18 07:37:54;;;;;;;1.50;1.20;;;24.00;65.60;;;;;;4837971;29;20522;-77
2023/06/18 07:40:21;;;;;;;3.25;2.30;;;24.00;64.40;;;;;;4861112;29;21134;-79
2023/06/18 07:42:49;;;;;;;2.72;1.27;;;24.20;64.40;;;;;;4830989;29;20584;-77
2023/06/18 07:45:16;;;;;;;3.97;1.20;;;24.20;64.00;;;;;;4860059;29;20195;-80
2023/06/18 07:47:43;;;;;;;1.55;1.35;;;24.20;63.00;;;;;;4856079;29;20155;-78
2023/06/18 07:50:11;;;;;;;2.13;1.00;;;24.30;62.70;;;;;;4869792;29;20055;-78
2023/06/18 07:52:38;;;;;;;2.10;1.15;;;24.20;61.90;;;;;;4865910;29;20056;-79
2023/06/18 07:55:05;;;;;;;2.20;0.90;;;24.20;61.30;;;;;;4854568;29;20276;-78
2023/06/18 07:57:32;;;;;;;1.70;0.88;;;24.20;60.70;;;;;;4853150;29;20046;-79
2023/06/18 08:00:00;;;;;;;3.05;1.05;;;24.20;60.10;;;;;;4857278;29;20622;-78
2023/06/18 08:02:38;;;;;;;3.47;1.10;;;24.20;60.20;;;;;;4859860;29;20083;-78
2023/06/18 08:05:07;;;;;;;1.50;0.70;;;24.30;59.80;;;;;;4864305;29;20067;-78
2023/06/18 08:07:35;;;;;;;2.15;0.60;;;24.40;60.40;;;;;;4850196;29;20070;-79
2023/06/18 08:10:02;;;;;;;1.70;0.60;;;24.50;58.80;;;;;;4843580;29;20139;-80
2023/06/18 08:12:29;;;;;;;2.08;1.00;;;24.60;61.10;;;;;;4861667;29;20068;-82
2023/06/18 08:14:57;;;;;;;2.70;1.15;;;24.70;62.00;;;;;;4849602;29;20222;-81
2023/06/18 08:17:24;;;;;;;2.40;1.38;;;24.60;61.30;;;;;;4844544;29;20056;-78
2023/06/18 08:19:55;;;;;;;2.92;1.50;;;24.60;60.70;;;;;;4859353;29;22055;-80
2023/06/18 08:22:22;;;;;;;2.83;1.63;;;24.60;62.00;;;;;;4868143;29;20662;-79
2023/06/18 08:24:49;;;;;;;1.50;1.15;;;24.70;62.50;;;;;;4839571;29;20135;-78
2023/06/18 08:27:16;;;;;;;1.58;1.08;;;24.60;61.50;;;;;;4852944;29;20048;-78
2023/06/18 08:29:43;;;;;;;1.35;0.98;;;24.60;61.50;;;;;;4853893;29;20053;-80
2023/06/18 08:32:10;;;;;;;1.83;0.80;;;24.80;61.50;;;;;;4857948;29;22354;-80
2023/06/18 08:34:42;;;;;;;2.40;1.33;;;24.80;62.10;;;;;;4857977;29;20785;-80
2023/06/18 08:37:10;;;;;;;2.13;1.13;;;24.80;62.10;;;;;;4869479;29;20052;-79
2023/06/18 08:39:38;;;;;;;1.65;1.15;;;24.90;62.10;;;;;;4851466;29;20092;-81
2023/06/18 08:42:06;;;;;;;1.45;0.98;;;25.00;60.30;;;;;;4853760;29;20045;-77
2023/06/18 08:44:34;;;;;;;2.03;1.30;;;25.00;60.50;;;;;;4841748;29;20592;-79
2023/06/18 08:47:03;;;;;;;2.15;1.35;;;25.00;60.20;;;;;;4861706;29;20179;-78
2023/06/18 08:49:32;;;;;;;2.55;1.20;;;25.00;61.00;;;;;;4865271;29;20126;-77
2023/06/18 08:52:08;;;;;;;2.50;1.80;;;25.10;60.60;;;;;;4842263;29;22387;-79
2023/06/18 08:54:37;;;;;;;2.17;1.35;;;25.10;60.70;;;;;;4854233;29;20111;-76
2023/06/18 08:57:30;;;;;;;3.42;1.77;;;25.10;60.00;;;;;;4873453;29;20049;-77
2023/06/18 08:59:59;;;;;;;2.85;1.10;;;25.30;60.90;;;;;;4846445;29;20055;-77
2023/06/18 09:02:27;;;;;;;2.25;1.52;;;25.20;58.60;;;;;;4850829;29;20156;-77
2023/06/18 09:04:55;;;;;;;13.95;5.75;;;25.10;59.80;;;;;;4845205;29;20048;-78
2023/06/18 09:07:26;;;;;;;3.42;2.25;;;25.20;60.20;;;;;;4841449;29;20053;-79
2023/06/18 09:09:53;;;;;;;2.83;1.30;;;25.20;59.20;;;;;;4859329;29;20147;-77
2023/06/18 09:12:20;;;;;;;5.22;1.33;;;25.10;58.60;;;;;;4864179;29;20048;-75
2023/06/18 09:14:48;;;;;;;2.00;1.30;;;25.20;58.80;;;;;;4851684;29;20094;-78
2023/06/18 09:17:16;;;;;;;5.00;3.55;;;25.10;59.70;;;;;;4856959;29;20052;-77
2023/06/18 09:19:46;;;;;;;15.98;11.50;;;25.20;59.80;;;;;;4851645;29;20056;-77
2023/06/18 09:22:18;;;;;;;6.47;2.70;;;25.40;61.00;;;;;;4837224;29;20048;-78
2023/06/18 09:24:59;;;;;;;2.38;1.52;;;25.50;59.70;;;;;;4848895;29;20400;-77
2023/06/18 09:27:32;;;;;;;4.38;2.30;;;25.40;59.00;;;;;;4856271;29;20057;-78
2023/06/18 09:30:01;;;;;;;7.35;3.53;;;25.40;59.50;;;;;;4860515;29;20199;-77
2023/06/18 09:32:28;;;;;;;3.40;2.33;;;25.60;58.70;;;;;;4837168;29;20713;-78
2023/06/18 09:34:55;;;;;;;15.68;4.03;;;25.60;57.80;;;;;;4848519;29;20060;-79
2023/06/18 09:37:25;;;;;;;2.30;1.52;;;25.70;58.30;;;;;;4856186;29;20060;-77
2023/06/18 09:40:20;;;;;;;1.92;1.58;;;25.60;56.30;;;;;;4847755;29;20129;-80
2023/06/18 09:42:48;;;;;;;2.88;2.10;;;25.40;55.60;;;;;;4855837;29;20044;-78
2023/06/18 09:45:17;;;;;;;3.30;2.58;;;25.50;57.70;;;;;;4857635;29;20532;-78
2023/06/18 09:47:49;;;;;;;3.17;2.15;;;25.50;57.40;;;;;;4865731;29;20043;-77
2023/06/18 09:50:17;;;;;;;;;;;25.50;57.20;;;;;;4864983;29;20060;-76
2023/06/18 09:52:51;;;;;;;4.97;1.92;;;25.60;55.80;;;;;;4854843;29;20045;-77
2023/06/18 09:55:32;;;;;;;3.25;1.50;;;25.60;56.00;;;;;;4854849;29;20048;-78
2023/06/18 09:58:00;;;;;;;8.73;3.00;;;25.40;55.70;;;;;;4852561;29;20048;-76
2023/06/18 10:00:28;;;;;;;4.30;2.00;;;25.60;57.40;;;;;;4851990;29;20048;-77
2023/06/18 10:03:07;;;;;;;3.85;2.05;;;25.60;56.70;;;;;;4873557;29;20051;-76
2023/06/18 10:05:35;;;;;;;2.08;1.70;;;25.60;57.00;;;;;;4888396;29;20051;-77
2023/06/18 10:08:06;;;;;;;2.47;1.70;;;25.70;57.40;;;;;;4866995;29;20114;-77
2023/06/18 10:10:36;;;;;;;5.35;2.00;;;25.80;58.10;;;;;;4863656;29;20095;-78
2023/06/18 10:13:09;;;;;;;2.92;1.98;;;25.90;56.80;;;;;;4861348;29;20275;-76
2023/06/18 10:15:39;;;;;;;3.53;2.15;;;25.70;56.30;;;;;;4853391;29;20175;-77
2023/06/18 10:18:11;;;;;;;3.72;2.00;;;25.60;56.50;;;;;;4858578;29;20057;-76
2023/06/18 10:20:40;;;;;;;2.33;1.88;;;25.70;56.40;;;;;;4845062;29;20124;-76
2023/06/18 10:23:07;;;;;;;2.90;2.03;;;25.70;56.20;;;;;;4838974;29;23230;-76
2023/06/18 10:25:35;;;;;;;1.90;1.70;;;25.70;55.90;;;;;;4870888;29;20060;-77
2023/06/18 10:28:03;;;;;;;4.32;2.75;;;25.80;56.70;;;;;;4858142;29;20859;-78
2023/06/18 10:30:31;;;;;;;3.30;2.10;;;25.80;56.60;;;;;;4852232;29;20122;-76
2023/06/18 10:32:58;;;;;;;5.22;2.00;;;25.80;57.50;;;;;;4888990;29;20036;-77
2023/06/18 10:35:26;;;;;;;3.85;2.25;;;25.70;56.50;;;;;;4878731;29;22291;-77
2023/06/18 10:37:54;;;;;;;3.47;2.30;;;25.70;56.40;;;;;;4846016;29;20119;-75
2023/06/18 10:40:21;;;;;;;3.83;2.20;;;25.80;56.20;;;;;;4858859;29;20056;-77
2023/06/18 10:42:49;;;;;;;3.13;2.38;;;25.90;57.10;;;;;;4852182;29;20044;-76
2023/06/18 10:45:18;;;;;;;3.85;2.00;;;26.00;57.30;;;;;;4863532;29;20436;-76
2023/06/18 10:47:46;;;;;;;7.90;2.47;;;25.90;55.90;;;;;;4846714;29;20516;-77
2023/06/18 10:50:18;;;;;;;3.42;2.20;;;25.90;56.70;;;;;;4831194;29;20052;-76
2023/06/18 10:52:50;;;;;;;3.30;2.47;;;25.80;56.10;;;;;;4858610;29;20050;-76
2023/06/18 10:55:20;;;;;;;5.38;2.60;;;26.00;58.30;;;;;;4861355;29;20183;-77
2023/06/18 10:58:09;;;;;;;3.88;3.00;;;26.10;58.30;;;;;;4851959;29;20051;-78
2023/06/18 11:00:40;;;;;;;4.85;3.00;;;26.10;55.90;;;;;;4842050;29;20779;-77
2023/06/18 11:03:16;;;;;;;3.88;2.42;;;26.10;56.40;;;;;;4852562;29;20044;-78
2023/06/18 11:05:45;;;;;;;3.38;2.17;;;26.30;57.00;;;;;;4848419;29;20528;-77
2023/06/18 11:08:14;;;;;;;4.30;2.65;;;26.40;56.10;;;;;;4865011;29;20063;-78
2023/06/18 11:10:47;;;;;;;3.30;2.30;;;26.30;56.50;;;;;;4874208;29;20083;-79
2023/06/18 11:13:16;;;;;;;3.63;2.75;;;26.30;55.80;;;;;;4872487;29;20056;-78
2023/06/18 11:15:52;;;;;;;4.57;2.72;;;26.20;55.40;;;;;;4837927;29;20059;-78
2023/06/18 11:18:21;;;;;;;5.03;3.15;;;26.40;56.60;;;;;;4852147;29;20143;-77
2023/06/18 11:20:49;;;;;;;4.93;2.63;;;26.40;56.50;;;;;;4866889;29;20088;-76
2023/06/18 11:23:17;;;;;;;3.00;2.53;;;26.40;56.90;;;;;;4890153;29;20444;-78
2023/06/18 11:25:48;;;;;;;5.03;2.92;;;26.40;55.70;;;;;;4879082;29;20063;-78
2023/06/18 11:28:16;;;;;;;4.68;2.50;;;26.50;55.20;;;;;;4861218;29;20056;-78
2023/06/18 11:30:55;;;;;;;3.92;2.40;;;26.60;56.90;;;;;;4858602;29;20539;-79
2023/06/18 11:33:23;;;;;;;2.90;2.50;;;26.70;56.10;;;;;;4858798;29;20712;-78
2023/06/18 11:35:52;;;;;;;3.47;2.33;;;26.50;54.90;;;;;;4869510;29;20044;-78
2023/06/18 11:38:21;;;;;;;3.58;2.45;;;26.50;55.60;;;;;;4873807;29;20044;-78
2023/06/18 11:40:53;;;;;;;2.83;2.10;;;26.20;56.80;;;;;;4857209;29;20048;-79
2023/06/18 11:43:21;;;;;;;3.85;2.58;;;26.00;55.50;;;;;;4851672;29;20044;-78
2023/06/18 11:45:49;;;;;;;3.05;2.30;;;26.10;57.40;;;;;;4867388;29;20052;-79
2023/06/18 11:48:19;;;;;;;4.80;2.40;;;26.10;56.50;;;;;;4858757;29;20411;-78
2023/06/18 11:50:53;;;;;;;3.67;2.47;;;26.30;57.30;;;;;;4860631;29;20068;-77
2023/06/18 11:53:22;;;;;;;7.55;3.33;;;26.50;57.60;;;;;;4860783;29;20048;-79
2023/06/18 11:55:53;;;;;;;5.40;3.33;;;26.30;56.30;;;;;;4868722;29;20511;-78
2023/06/18 11:58:21;;;;;;;4.30;2.30;;;26.20;57.50;;;;;;4871873;29;20452;-78
2023/06/18 12:00:48;;;;;;;6.30;3.10;;;26.00;57.70;;;;;;4854954;29;20052;-79
2023/06/18 12:03:15;;;;;;;5.05;2.92;;;25.90;58.60;;;;;;4868365;29;20184;-77
2023/06/18 12:05:42;;;;;;;5.28;3.05;;;26.10;58.50;;;;;;4881400;29;20052;-78
2023/06/18 12:08:12;;;;;;;4.18;2.97;;;26.10;58.50;;;;;;4845124;29;20535;-79
2023/06/18 12:10:41;;;;;;;4.88;3.47;;;26.00;60.60;;;;;;4852841;29;20088;-78
2023/06/18 12:13:14;;;;;;;3.70;2.45;;;26.10;57.70;;;;;;4863400;29;20083;-78
2023/06/18 12:16:08;;;;;;;5.78;3.58;;;26.20;58.00;;;;;;4850115;29;20535;-80
2023/06/18 12:18:40;;;;;;;3.53;2.65;;;26.40;59.00;;;;;;4846816;29;20060;-79
2023/06/18 12:21:07;;;;;;;13.57;6.38;;;26.50;58.70;;;;;;4848545;29;20059;-78
2023/06/18 12:23:37;;;;;;;4.35;2.90;;;26.50;57.70;;;;;;4858998;29;20051;-78
2023/06/18 12:26:05;;;;;;;3.90;2.75;;;26.60;58.90;;;;;;4852409;29;20063;-78
2023/06/18 12:28:35;;;;;;;4.50;2.72;;;26.70;58.00;;;;;;4847395;29;20744;-78
2023/06/18 12:31:07;;;;;;;4.07;2.90;;;26.70;57.00;;;;;;4864168;29;20060;-79
2023/06/18 12:33:40;;;;;;;3.65;2.53;;;26.70;55.50;;;;;;4855895;29;21047;-78
2023/06/18 12:36:08;;;;;;;4.35;2.40;;;26.60;55.40;;;;;;4861305;29;20056;-78
2023/06/18 12:38:43;;;;;;;3.90;2.33;;;26.50;55.10;;;;;;4849052;29;21170;-78
2023/06/18 12:41:19;;;;;;;4.75;2.50;;;26.10;55.10;;;;;;4855486;29;20087;-79
2023/06/18 12:43:46;;;;;;;9.00;2.72;;;26.20;57.00;;;;;;4863450;29;20693;-77
2023/06/18 12:46:23;;;;;;;19.42;3.53;;;26.50;57.00;;;;;;4848552;29;20083;-78
2023/06/18 12:48:51;;;;;;;4.40;2.65;;;26.60;57.10;;;;;;4845630;29;20134;-78
2023/06/18 12:51:19;;;;;;;8.77;2.67;;;26.60;57.20;;;;;;4861867;29;22097;-79
2023/06/18 12:53:46;;;;;;;3.47;2.30;;;26.50;58.40;;;;;;4863849;29;20056;-79
2023/06/18 12:56:20;;;;;;;5.50;2.88;;;26.10;56.60;;;;;;4852391;29;20052;-78
2023/06/18 12:58:48;;;;;;;3.00;2.30;;;25.80;57.10;;;;;;4852897;29;20052;-79
2023/06/18 13:01:15;;;;;;;4.75;2.58;;;25.60;54.80;;;;;;4848879;29;20096;-79